sensor_id;sensor_type;location;lat;lon;timestamp;temperature;humidity
69626;DHT22;56847;51.984;5.088;2023-12-20T00:02:15;9.60;87.20
69626;DHT22;56847;51.984;5.088;2023-12-20T00:04:42;9.50;87.00
69626;DHT22;56847;51.984;5.088;2023-12-20T00:07:09;9.50;87.00
69626;DHT22;56847;51.984;5.088;2023-12-20T00:09:36;9.50;87.00
69626;DHT22;56847;51.984;5.088;2023-12-20T00:12:03;9.40;86.90
69626;DHT22;56847;51.984;5.088;2023-12-20T00:14:32;9.40;86.90
69626;DHT22;56847;51.984;5.088;2023-12-20T00:16:58;9.30;86.80
69626;DHT22;56847;51.984;5.088;2023-12-20T00:19:25;9.30;86.80
69626;DHT22;56847;51.984;5.088;2023-12-20T00:21:52;9.30;86.80
69626;DHT22;56847;51.984;5.088;2023-12-20T00:24:19;9.30;86.80
69626;DHT22;56847;51.984;5.088;2023-12-20T00:26:47;9.20;86.80
69626;DHT22;56847;51.984;5.088;2023-12-20T00:29:14;9.20;86.80
69626;DHT22;56847;51.984;5.088;2023-12-20T00:31:41;9.20;86.90
69626;DHT22;56847;51.984;5.088;2023-12-20T00:34:07;9.20;87.00
69626;DHT22;56847;51.984;5.088;2023-12-20T00:36:35;9.20;87.20
69626;DHT22;56847;51.984;5.088;2023-12-20T00:39:02;9.20;87.50
69626;DHT22;56847;51.984;5.088;2023-12-20T00:41:29;9.20;87.80
69626;DHT22;56847;51.984;5.088;2023-12-20T00:43:56;9.30;87.80
69626;DHT22;56847;51.984;5.088;2023-12-20T00:46:23;9.30;87.70
69626;DHT22;56847;51.984;5.088;2023-12-20T00:48:50;9.40;87.50
69626;DHT22;56847;51.984;5.088;2023-12-20T00:51:17;9.30;87.30
69626;DHT22;56847;51.984;5.088;2023-12-20T00:53:44;9.30;87.10
69626;DHT22;56847;51.984;5.088;2023-12-20T00:56:11;9.30;87.00
69626;DHT22;56847;51.984;5.088;2023-12-20T00:58:38;9.20;87.00
69626;DHT22;56847;51.984;5.088;2023-12-20T01:01:05;9.20;86.90
69626;DHT22;56847;51.984;5.088;2023-12-20T01:03:32;9.20;87.00
69626;DHT22;56847;51.984;5.088;2023-12-20T01:05:59;9.20;86.90
69626;DHT22;56847;51.984;5.088;2023-12-20T01:08:25;9.10;87.00
69626;DHT22;56847;51.984;5.088;2023-12-20T01:10:52;9.10;87.10
69626;DHT22;56847;51.984;5.088;2023-12-20T01:13:19;9.10;87.20
69626;DHT22;56847;51.984;5.088;2023-12-20T01:15:46;9.10;87.60
69626;DHT22;56847;51.984;5.088;2023-12-20T01:18:14;9.10;87.60
69626;DHT22;56847;51.984;5.088;2023-12-20T01:20:41;9.10;87.50
69626;DHT22;56847;51.984;5.088;2023-12-20T01:23:09;9.10;87.30
69626;DHT22;56847;51.984;5.088;2023-12-20T01:25:36;9.10;87.20
69626;DHT22;56847;51.984;5.088;2023-12-20T01:28:03;9.10;87.10
69626;DHT22;56847;51.984;5.088;2023-12-20T01:30:30;9.10;87.20
69626;DHT22;56847;51.984;5.088;2023-12-20T01:32:59;9.10;87.40
69626;DHT22;56847;51.984;5.088;2023-12-20T01:35:26;9.10;87.50
69626;DHT22;56847;51.984;5.088;2023-12-20T01:37:53;9.10;87.40
69626;DHT22;56847;51.984;5.088;2023-12-20T01:40:23;9.10;87.70
69626;DHT22;56847;51.984;5.088;2023-12-20T01:43:00;9.10;87.90
69626;DHT22;56847;51.984;5.088;2023-12-20T01:45:28;9.20;88.10
69626;DHT22;56847;51.984;5.088;2023-12-20T01:47:56;9.30;88.00
69626;DHT22;56847;51.984;5.088;2023-12-20T01:50:24;9.30;88.10
69626;DHT22;56847;51.984;5.088;2023-12-20T01:52:51;9.30;88.20
69626;DHT22;56847;51.984;5.088;2023-12-20T01:55:19;9.40;88.20
69626;DHT22;56847;51.984;5.088;2023-12-20T01:57:47;9.40;88.00
69626;DHT22;56847;51.984;5.088;2023-12-20T02:00:14;9.40;87.70
69626;DHT22;56847;51.984;5.088;2023-12-20T02:02:43;9.40;87.90
69626;DHT22;56847;51.984;5.088;2023-12-20T02:05:14;9.40;88.10
69626;DHT22;56847;51.984;5.088;2023-12-20T02:07:41;9.50;88.20
69626;DHT22;56847;51.984;5.088;2023-12-20T02:10:08;9.50;88.20
69626;DHT22;56847;51.984;5.088;2023-12-20T02:12:35;9.60;88.20
69626;DHT22;56847;51.984;5.088;2023-12-20T02:15:02;9.60;88.30
69626;DHT22;56847;51.984;5.088;2023-12-20T02:17:30;9.60;88.10
69626;DHT22;56847;51.984;5.088;2023-12-20T02:19:58;9.60;88.10
69626;DHT22;56847;51.984;5.088;2023-12-20T02:22:25;9.70;88.10
69626;DHT22;56847;51.984;5.088;2023-12-20T02:24:52;9.70;88.20
69626;DHT22;56847;51.984;5.088;2023-12-20T02:27:19;9.70;88.20
69626;DHT22;56847;51.984;5.088;2023-12-20T02:29:47;9.80;88.00
69626;DHT22;56847;51.984;5.088;2023-12-20T02:32:16;9.70;87.50
69626;DHT22;56847;51.984;5.088;2023-12-20T02:34:43;9.70;87.40
69626;DHT22;56847;51.984;5.088;2023-12-20T02:37:10;9.70;87.60
69626;DHT22;56847;51.984;5.088;2023-12-20T02:39:37;9.70;87.60
69626;DHT22;56847;51.984;5.088;2023-12-20T02:42:04;9.60;87.50
69626;DHT22;56847;51.984;5.088;2023-12-20T02:44:31;9.60;87.20
69626;DHT22;56847;51.984;5.088;2023-12-20T02:46:58;9.60;87.40
69626;DHT22;56847;51.984;5.088;2023-12-20T02:49:24;9.60;87.70
69626;DHT22;56847;51.984;5.088;2023-12-20T02:51:51;9.60;87.80
69626;DHT22;56847;51.984;5.088;2023-12-20T02:54:18;9.60;87.80
69626;DHT22;56847;51.984;5.088;2023-12-20T02:56:45;9.60;88.00
69626;DHT22;56847;51.984;5.088;2023-12-20T02:59:15;9.70;88.20
69626;DHT22;56847;51.984;5.088;2023-12-20T03:01:44;9.70;88.30
69626;DHT22;56847;51.984;5.088;2023-12-20T03:04:12;9.70;88.20
69626;DHT22;56847;51.984;5.088;2023-12-20T03:06:39;9.80;88.20
69626;DHT22;56847;51.984;5.088;2023-12-20T03:09:06;9.80;88.20
69626;DHT22;56847;51.984;5.088;2023-12-20T03:11:33;9.90;88.40
69626;DHT22;56847;51.984;5.088;2023-12-20T03:13:59;9.90;88.40
69626;DHT22;56847;51.984;5.088;2023-12-20T03:16:26;10.00;88.30
69626;DHT22;56847;51.984;5.088;2023-12-20T03:18:53;10.00;88.20
69626;DHT22;56847;51.984;5.088;2023-12-20T03:21:20;10.00;88.20
69626;DHT22;56847;51.984;5.088;2023-12-20T03:23:47;10.10;88.10
69626;DHT22;56847;51.984;5.088;2023-12-20T03:26:14;10.10;88.10
69626;DHT22;56847;51.984;5.088;2023-12-20T03:28:43;10.10;87.90
69626;DHT22;56847;51.984;5.088;2023-12-20T03:31:10;10.10;87.90
69626;DHT22;56847;51.984;5.088;2023-12-20T03:33:38;10.10;88.00
69626;DHT22;56847;51.984;5.088;2023-12-20T03:36:05;10.20;88.10
69626;DHT22;56847;51.984;5.088;2023-12-20T03:38:32;10.20;88.00
69626;DHT22;56847;51.984;5.088;2023-12-20T03:40:59;10.20;88.00
69626;DHT22;56847;51.984;5.088;2023-12-20T03:43:26;10.20;87.90
69626;DHT22;56847;51.984;5.088;2023-12-20T03:45:53;10.20;87.90
69626;DHT22;56847;51.984;5.088;2023-12-20T03:48:20;10.20;87.90
69626;DHT22;56847;51.984;5.088;2023-12-20T03:50:47;10.20;87.90
69626;DHT22;56847;51.984;5.088;2023-12-20T03:53:14;10.20;87.50
69626;DHT22;56847;51.984;5.088;2023-12-20T03:55:41;10.20;87.50
69626;DHT22;56847;51.984;5.088;2023-12-20T03:58:07;10.10;87.50
69626;DHT22;56847;51.984;5.088;2023-12-20T04:00:34;10.10;87.00
69626;DHT22;56847;51.984;5.088;2023-12-20T04:03:01;10.00;87.10
69626;DHT22;56847;51.984;5.088;2023-12-20T04:05:28;10.00;87.10
69626;DHT22;56847;51.984;5.088;2023-12-20T04:07:55;10.00;87.20
69626;DHT22;56847;51.984;5.088;2023-12-20T04:10:22;10.00;87.40
69626;DHT22;56847;51.984;5.088;2023-12-20T04:12:49;10.00;87.50
69626;DHT22;56847;51.984;5.088;2023-12-20T04:15:16;10.00;87.60
69626;DHT22;56847;51.984;5.088;2023-12-20T04:17:45;10.00;87.70
69626;DHT22;56847;51.984;5.088;2023-12-20T04:20:13;10.10;87.40
69626;DHT22;56847;51.984;5.088;2023-12-20T04:22:40;10.10;87.40
69626;DHT22;56847;51.984;5.088;2023-12-20T04:25:07;10.10;87.60
69626;DHT22;56847;51.984;5.088;2023-12-20T04:27:34;10.10;87.50
69626;DHT22;56847;51.984;5.088;2023-12-20T04:30:01;10.20;87.60
69626;DHT22;56847;51.984;5.088;2023-12-20T04:32:28;10.20;87.60
69626;DHT22;56847;51.984;5.088;2023-12-20T04:34:55;10.20;87.40
69626;DHT22;56847;51.984;5.088;2023-12-20T04:37:22;10.20;87.50
69626;DHT22;56847;51.984;5.088;2023-12-20T04:39:49;10.20;87.60
69626;DHT22;56847;51.984;5.088;2023-12-20T04:42:16;10.20;87.50
69626;DHT22;56847;51.984;5.088;2023-12-20T04:44:43;10.20;87.30
69626;DHT22;56847;51.984;5.088;2023-12-20T04:47:10;10.20;87.40
69626;DHT22;56847;51.984;5.088;2023-12-20T04:49:37;10.20;87.30
69626;DHT22;56847;51.984;5.088;2023-12-20T04:52:04;10.20;87.20
69626;DHT22;56847;51.984;5.088;2023-12-20T04:54:32;10.20;87.20
69626;DHT22;56847;51.984;5.088;2023-12-20T04:56:59;10.20;87.30
69626;DHT22;56847;51.984;5.088;2023-12-20T04:59:26;10.20;87.00
69626;DHT22;56847;51.984;5.088;2023-12-20T05:01:53;10.10;87.00
69626;DHT22;56847;51.984;5.088;2023-12-20T05:04:20;10.10;87.10
69626;DHT22;56847;51.984;5.088;2023-12-20T05:06:50;10.10;87.00
69626;DHT22;56847;51.984;5.088;2023-12-20T05:09:17;10.10;87.20
69626;DHT22;56847;51.984;5.088;2023-12-20T05:11:44;10.10;87.30
69626;DHT22;56847;51.984;5.088;2023-12-20T05:14:11;10.10;87.40
69626;DHT22;56847;51.984;5.088;2023-12-20T05:16:38;10.10;87.50
69626;DHT22;56847;51.984;5.088;2023-12-20T05:19:05;10.10;87.40
69626;DHT22;56847;51.984;5.088;2023-12-20T05:21:33;10.10;87.60
69626;DHT22;56847;51.984;5.088;2023-12-20T05:24:00;10.10;87.50
69626;DHT22;56847;51.984;5.088;2023-12-20T05:26:27;10.10;87.40
69626;DHT22;56847;51.984;5.088;2023-12-20T05:28:56;10.20;87.50
69626;DHT22;56847;51.984;5.088;2023-12-20T05:31:23;10.20;87.40
69626;DHT22;56847;51.984;5.088;2023-12-20T05:33:50;10.20;87.50
69626;DHT22;56847;51.984;5.088;2023-12-20T05:36:17;10.20;87.40
69626;DHT22;56847;51.984;5.088;2023-12-20T05:38:44;10.20;87.60
69626;DHT22;56847;51.984;5.088;2023-12-20T05:41:11;10.20;87.50
69626;DHT22;56847;51.984;5.088;2023-12-20T05:43:38;10.20;87.50
69626;DHT22;56847;51.984;5.088;2023-12-20T05:46:05;10.20;87.40
69626;DHT22;56847;51.984;5.088;2023-12-20T05:48:32;10.20;87.30
69626;DHT22;56847;51.984;5.088;2023-12-20T05:50:59;10.20;87.50
69626;DHT22;56847;51.984;5.088;2023-12-20T05:53:26;10.20;87.30
69626;DHT22;56847;51.984;5.088;2023-12-20T05:55:53;10.20;87.30
69626;DHT22;56847;51.984;5.088;2023-12-20T05:58:20;10.20;87.00
69626;DHT22;56847;51.984;5.088;2023-12-20T06:00:47;10.20;87.10
69626;DHT22;56847;51.984;5.088;2023-12-20T06:03:15;10.20;87.10
69626;DHT22;56847;51.984;5.088;2023-12-20T06:05:42;10.20;87.30
69626;DHT22;56847;51.984;5.088;2023-12-20T06:08:10;10.20;87.00
69626;DHT22;56847;51.984;5.088;2023-12-20T06:10:36;10.20;86.90
69626;DHT22;56847;51.984;5.088;2023-12-20T06:13:03;10.30;87.00
69626;DHT22;56847;51.984;5.088;2023-12-20T06:15:33;10.30;87.20
69626;DHT22;56847;51.984;5.088;2023-12-20T06:18:00;10.30;86.90
69626;DHT22;56847;51.984;5.088;2023-12-20T06:20:27;10.30;86.90
69626;DHT22;56847;51.984;5.088;2023-12-20T06:22:54;10.30;86.90
69626;DHT22;56847;51.984;5.088;2023-12-20T06:25:24;10.30;87.10
69626;DHT22;56847;51.984;5.088;2023-12-20T06:27:52;10.30;87.10
69626;DHT22;56847;51.984;5.088;2023-12-20T06:30:19;10.30;86.90
69626;DHT22;56847;51.984;5.088;2023-12-20T06:32:46;10.30;87.20
69626;DHT22;56847;51.984;5.088;2023-12-20T06:35:14;10.40;86.90
69626;DHT22;56847;51.984;5.088;2023-12-20T06:37:41;10.40;86.60
69626;DHT22;56847;51.984;5.088;2023-12-20T06:40:11;10.40;86.30
69626;DHT22;56847;51.984;5.088;2023-12-20T06:42:44;10.40;86.80
69626;DHT22;56847;51.984;5.088;2023-12-20T06:45:24;10.40;86.90
69626;DHT22;56847;51.984;5.088;2023-12-20T06:47:57;10.40;86.20
69626;DHT22;56847;51.984;5.088;2023-12-20T06:50:25;10.40;86.10
69626;DHT22;56847;51.984;5.088;2023-12-20T06:52:52;10.40;85.70
69626;DHT22;56847;51.984;5.088;2023-12-20T06:55:19;10.40;85.90
69626;DHT22;56847;51.984;5.088;2023-12-20T06:57:46;10.50;86.20
69626;DHT22;56847;51.984;5.088;2023-12-20T07:00:14;10.50;86.00
69626;DHT22;56847;51.984;5.088;2023-12-20T07:02:41;10.50;85.90
69626;DHT22;56847;51.984;5.088;2023-12-20T07:05:08;10.50;86.00
69626;DHT22;56847;51.984;5.088;2023-12-20T07:07:35;10.50;85.80
69626;DHT22;56847;51.984;5.088;2023-12-20T07:10:02;10.50;86.00
69626;DHT22;56847;51.984;5.088;2023-12-20T07:12:29;10.50;85.70
69626;DHT22;56847;51.984;5.088;2023-12-20T07:14:56;10.60;85.50
69626;DHT22;56847;51.984;5.088;2023-12-20T07:17:23;10.60;85.40
69626;DHT22;56847;51.984;5.088;2023-12-20T07:19:50;10.60;85.20
69626;DHT22;56847;51.984;5.088;2023-12-20T07:22:17;10.60;85.40
69626;DHT22;56847;51.984;5.088;2023-12-20T07:24:44;10.60;85.60
69626;DHT22;56847;51.984;5.088;2023-12-20T07:27:11;10.60;85.10
69626;DHT22;56847;51.984;5.088;2023-12-20T07:29:38;10.60;85.30
69626;DHT22;56847;51.984;5.088;2023-12-20T07:32:05;10.60;85.90
69626;DHT22;56847;51.984;5.088;2023-12-20T07:34:32;10.70;85.70
69626;DHT22;56847;51.984;5.088;2023-12-20T07:37:02;10.70;85.20
69626;DHT22;56847;51.984;5.088;2023-12-20T07:39:29;10.70;85.00
69626;DHT22;56847;51.984;5.088;2023-12-20T07:41:58;10.70;85.40
69626;DHT22;56847;51.984;5.088;2023-12-20T07:44:25;10.70;85.00
69626;DHT22;56847;51.984;5.088;2023-12-20T07:46:52;10.70;84.80
69626;DHT22;56847;51.984;5.088;2023-12-20T07:49:19;10.70;84.80
69626;DHT22;56847;51.984;5.088;2023-12-20T07:51:46;10.70;84.50
69626;DHT22;56847;51.984;5.088;2023-12-20T07:54:13;10.70;84.80
69626;DHT22;56847;51.984;5.088;2023-12-20T07:56:40;10.70;84.60
69626;DHT22;56847;51.984;5.088;2023-12-20T07:59:06;10.70;84.70
69626;DHT22;56847;51.984;5.088;2023-12-20T08:01:47;10.70;84.40
69626;DHT22;56847;51.984;5.088;2023-12-20T08:04:14;10.80;84.60
69626;DHT22;56847;51.984;5.088;2023-12-20T08:06:41;10.80;84.30
69626;DHT22;56847;51.984;5.088;2023-12-20T08:09:11;10.80;83.90
69626;DHT22;56847;51.984;5.088;2023-12-20T08:11:38;10.80;84.00
69626;DHT22;56847;51.984;5.088;2023-12-20T08:14:05;10.80;84.40
69626;DHT22;56847;51.984;5.088;2023-12-20T08:16:32;10.80;83.80
69626;DHT22;56847;51.984;5.088;2023-12-20T08:18:59;10.80;84.00
69626;DHT22;56847;51.984;5.088;2023-12-20T08:21:26;10.80;83.50
69626;DHT22;56847;51.984;5.088;2023-12-20T08:23:53;10.80;83.80
69626;DHT22;56847;51.984;5.088;2023-12-20T08:26:21;10.90;83.90
69626;DHT22;56847;51.984;5.088;2023-12-20T08:28:50;10.80;82.50
69626;DHT22;56847;51.984;5.088;2023-12-20T08:31:17;10.90;83.50
69626;DHT22;56847;51.984;5.088;2023-12-20T08:33:46;10.90;83.70
69626;DHT22;56847;51.984;5.088;2023-12-20T08:36:14;10.90;83.50
69626;DHT22;56847;51.984;5.088;2023-12-20T08:38:41;10.90;84.10
69626;DHT22;56847;51.984;5.088;2023-12-20T08:41:08;10.90;84.30
69626;DHT22;56847;51.984;5.088;2023-12-20T08:43:35;10.90;82.60
69626;DHT22;56847;51.984;5.088;2023-12-20T08:46:02;10.90;83.20
69626;DHT22;56847;51.984;5.088;2023-12-20T08:48:29;10.90;82.00
69626;DHT22;56847;51.984;5.088;2023-12-20T08:50:59;10.90;82.40
69626;DHT22;56847;51.984;5.088;2023-12-20T08:53:26;10.90;83.00
69626;DHT22;56847;51.984;5.088;2023-12-20T08:55:53;11.00;83.30
69626;DHT22;56847;51.984;5.088;2023-12-20T08:58:20;11.00;83.50
69626;DHT22;56847;51.984;5.088;2023-12-20T09:00:47;11.00;82.30
69626;DHT22;56847;51.984;5.088;2023-12-20T09:03:14;11.00;83.30
69626;DHT22;56847;51.984;5.088;2023-12-20T09:05:41;11.00;83.50
69626;DHT22;56847;51.984;5.088;2023-12-20T09:08:08;11.00;83.30
69626;DHT22;56847;51.984;5.088;2023-12-20T09:10:38;11.00;81.90
69626;DHT22;56847;51.984;5.088;2023-12-20T09:13:04;11.00;82.90
69626;DHT22;56847;51.984;5.088;2023-12-20T09:15:34;11.10;83.70
69626;DHT22;56847;51.984;5.088;2023-12-20T09:18:03;11.10;82.90
69626;DHT22;56847;51.984;5.088;2023-12-20T09:20:30;11.10;82.80
69626;DHT22;56847;51.984;5.088;2023-12-20T09:23:00;11.10;83.20
69626;DHT22;56847;51.984;5.088;2023-12-20T09:25:27;11.20;83.30
69626;DHT22;56847;51.984;5.088;2023-12-20T09:27:55;11.20;83.50
69626;DHT22;56847;51.984;5.088;2023-12-20T09:30:22;11.20;83.00
69626;DHT22;56847;51.984;5.088;2023-12-20T09:32:56;11.20;83.30
69626;DHT22;56847;51.984;5.088;2023-12-20T09:35:23;11.20;83.20
69626;DHT22;56847;51.984;5.088;2023-12-20T09:37:51;11.20;83.50
69626;DHT22;56847;51.984;5.088;2023-12-20T09:40:18;11.30;83.00
69626;DHT22;56847;51.984;5.088;2023-12-20T09:43:08;11.30;83.60
69626;DHT22;56847;51.984;5.088;2023-12-20T09:45:36;11.30;83.30
69626;DHT22;56847;51.984;5.088;2023-12-20T09:48:03;11.30;82.80
69626;DHT22;56847;51.984;5.088;2023-12-20T09:50:31;11.40;83.00
69626;DHT22;56847;51.984;5.088;2023-12-20T09:53:04;11.40;83.00
69626;DHT22;56847;51.984;5.088;2023-12-20T09:55:36;11.40;83.20
69626;DHT22;56847;51.984;5.088;2023-12-20T09:58:03;11.40;83.00
69626;DHT22;56847;51.984;5.088;2023-12-20T10:00:30;11.40;82.60
69626;DHT22;56847;51.984;5.088;2023-12-20T10:02:59;11.50;82.90
69626;DHT22;56847;51.984;5.088;2023-12-20T10:07:57;11.50;82.70
69626;DHT22;56847;51.984;5.088;2023-12-20T10:10:26;11.50;82.70
69626;DHT22;56847;51.984;5.088;2023-12-20T10:13:09;11.60;83.00
69626;DHT22;56847;51.984;5.088;2023-12-20T10:15:37;11.60;83.20
69626;DHT22;56847;51.984;5.088;2023-12-20T10:18:05;11.60;83.20
69626;DHT22;56847;51.984;5.088;2023-12-20T10:20:32;11.70;82.80
69626;DHT22;56847;51.984;5.088;2023-12-20T10:23:00;11.70;82.50
69626;DHT22;56847;51.984;5.088;2023-12-20T10:25:27;11.70;82.40
69626;DHT22;56847;51.984;5.088;2023-12-20T10:28:15;11.70;82.30
69626;DHT22;56847;51.984;5.088;2023-12-20T10:30:46;11.80;82.60
69626;DHT22;56847;51.984;5.088;2023-12-20T10:33:13;11.80;82.40
69626;DHT22;56847;51.984;5.088;2023-12-20T10:35:40;11.80;82.10
69626;DHT22;56847;51.984;5.088;2023-12-20T10:38:14;11.80;82.10
69626;DHT22;56847;51.984;5.088;2023-12-20T10:40:42;11.90;81.80
69626;DHT22;56847;51.984;5.088;2023-12-20T10:43:12;11.90;82.20
69626;DHT22;56847;51.984;5.088;2023-12-20T10:45:39;11.90;80.70
69626;DHT22;56847;51.984;5.088;2023-12-20T10:48:10;11.90;81.50
69626;DHT22;56847;51.984;5.088;2023-12-20T10:50:39;12.00;80.50
69626;DHT22;56847;51.984;5.088;2023-12-20T10:53:07;12.00;81.10
69626;DHT22;56847;51.984;5.088;2023-12-20T10:55:34;12.00;81.20
69626;DHT22;56847;51.984;5.088;2023-12-20T10:58:07;12.00;80.40
69626;DHT22;56847;51.984;5.088;2023-12-20T11:00:41;12.00;80.50
69626;DHT22;56847;51.984;5.088;2023-12-20T11:03:11;12.00;80.70
69626;DHT22;56847;51.984;5.088;2023-12-20T11:08:32;12.00;79.30
69626;DHT22;56847;51.984;5.088;2023-12-20T11:11:07;12.00;79.10
69626;DHT22;56847;51.984;5.088;2023-12-20T11:13:43;12.00;80.30
69626;DHT22;56847;51.984;5.088;2023-12-20T11:16:14;12.00;79.40
69626;DHT22;56847;51.984;5.088;2023-12-20T11:18:41;12.10;79.70
69626;DHT22;56847;51.984;5.088;2023-12-20T11:21:10;12.10;79.80
69626;DHT22;56847;51.984;5.088;2023-12-20T11:23:37;12.20;78.90
69626;DHT22;56847;51.984;5.088;2023-12-20T11:26:07;12.20;79.40
69626;DHT22;56847;51.984;5.088;2023-12-20T11:28:34;12.30;79.30
69626;DHT22;56847;51.984;5.088;2023-12-20T11:31:02;12.30;79.00
69626;DHT22;56847;51.984;5.088;2023-12-20T11:33:32;12.30;78.00
69626;DHT22;56847;51.984;5.088;2023-12-20T11:36:02;12.30;78.00
69626;DHT22;56847;51.984;5.088;2023-12-20T11:38:36;12.30;78.10
69626;DHT22;56847;51.984;5.088;2023-12-20T11:41:07;12.30;78.70
69626;DHT22;56847;51.984;5.088;2023-12-20T11:43:38;12.30;79.00
69626;DHT22;56847;51.984;5.088;2023-12-20T11:46:07;12.30;79.40
69626;DHT22;56847;51.984;5.088;2023-12-20T11:48:38;12.30;79.10
69626;DHT22;56847;51.984;5.088;2023-12-20T11:51:12;12.30;78.20
69626;DHT22;56847;51.984;5.088;2023-12-20T11:53:41;12.40;79.20
69626;DHT22;56847;51.984;5.088;2023-12-20T11:56:11;12.40;79.50
69626;DHT22;56847;51.984;5.088;2023-12-20T11:58:39;12.50;79.20
69626;DHT22;56847;51.984;5.088;2023-12-20T12:01:07;12.50;78.00
69626;DHT22;56847;51.984;5.088;2023-12-20T12:03:35;12.50;78.50
69626;DHT22;56847;51.984;5.088;2023-12-20T12:06:03;12.50;78.40
69626;DHT22;56847;51.984;5.088;2023-12-20T12:08:32;12.60;78.70
69626;DHT22;56847;51.984;5.088;2023-12-20T12:10:59;12.60;78.00
69626;DHT22;56847;51.984;5.088;2023-12-20T12:13:26;12.60;78.00
69626;DHT22;56847;51.984;5.088;2023-12-20T12:15:54;12.60;77.60
69626;DHT22;56847;51.984;5.088;2023-12-20T12:18:22;12.50;77.20
69626;DHT22;56847;51.984;5.088;2023-12-20T12:20:49;12.50;77.60
69626;DHT22;56847;51.984;5.088;2023-12-20T12:23:23;12.50;77.80
69626;DHT22;56847;51.984;5.088;2023-12-20T12:25:51;12.50;77.80
69626;DHT22;56847;51.984;5.088;2023-12-20T12:28:18;12.40;77.30
69626;DHT22;56847;51.984;5.088;2023-12-20T12:30:58;12.50;77.90
69626;DHT22;56847;51.984;5.088;2023-12-20T12:33:26;12.50;77.60
69626;DHT22;56847;51.984;5.088;2023-12-20T12:35:53;12.50;77.70
69626;DHT22;56847;51.984;5.088;2023-12-20T12:38:21;12.50;77.70
69626;DHT22;56847;51.984;5.088;2023-12-20T12:40:48;12.50;78.40
69626;DHT22;56847;51.984;5.088;2023-12-20T12:43:16;12.50;78.00
69626;DHT22;56847;51.984;5.088;2023-12-20T12:45:46;12.60;78.30
69626;DHT22;56847;51.984;5.088;2023-12-20T12:48:15;12.60;78.30
69626;DHT22;56847;51.984;5.088;2023-12-20T12:50:42;12.60;78.00
69626;DHT22;56847;51.984;5.088;2023-12-20T12:53:10;12.70;78.10
69626;DHT22;56847;51.984;5.088;2023-12-20T12:55:37;12.70;78.10
69626;DHT22;56847;51.984;5.088;2023-12-20T12:58:04;12.70;76.80
69626;DHT22;56847;51.984;5.088;2023-12-20T13:00:31;12.70;77.20
69626;DHT22;56847;51.984;5.088;2023-12-20T13:02:58;12.70;77.30
69626;DHT22;56847;51.984;5.088;2023-12-20T13:05:25;12.70;76.60
69626;DHT22;56847;51.984;5.088;2023-12-20T13:07:53;12.70;77.00
69626;DHT22;56847;51.984;5.088;2023-12-20T13:10:20;12.70;76.00
69626;DHT22;56847;51.984;5.088;2023-12-20T13:12:47;12.70;77.10
69626;DHT22;56847;51.984;5.088;2023-12-20T13:15:14;12.80;76.80
69626;DHT22;56847;51.984;5.088;2023-12-20T13:17:41;12.70;76.40
69626;DHT22;56847;51.984;5.088;2023-12-20T13:20:09;12.80;76.30
69626;DHT22;56847;51.984;5.088;2023-12-20T13:22:36;12.80;76.40
69626;DHT22;56847;51.984;5.088;2023-12-20T13:25:03;12.80;76.60
69626;DHT22;56847;51.984;5.088;2023-12-20T13:27:30;12.80;76.40
69626;DHT22;56847;51.984;5.088;2023-12-20T13:29:58;12.80;75.90
69626;DHT22;56847;51.984;5.088;2023-12-20T13:32:25;12.80;76.00
69626;DHT22;56847;51.984;5.088;2023-12-20T13:34:52;12.70;75.30
69626;DHT22;56847;51.984;5.088;2023-12-20T13:37:19;12.70;75.40
69626;DHT22;56847;51.984;5.088;2023-12-20T13:39:49;12.70;75.40
69626;DHT22;56847;51.984;5.088;2023-12-20T13:42:16;12.70;75.70
69626;DHT22;56847;51.984;5.088;2023-12-20T13:44:43;12.70;75.40
69626;DHT22;56847;51.984;5.088;2023-12-20T13:47:10;12.70;75.60
69626;DHT22;56847;51.984;5.088;2023-12-20T13:49:37;12.70;75.90
69626;DHT22;56847;51.984;5.088;2023-12-20T13:52:05;12.70;75.80
69626;DHT22;56847;51.984;5.088;2023-12-20T13:54:32;12.70;75.30
69626;DHT22;56847;51.984;5.088;2023-12-20T13:56:59;12.60;75.60
69626;DHT22;56847;51.984;5.088;2023-12-20T13:59:42;12.60;76.00
69626;DHT22;56847;51.984;5.088;2023-12-20T14:02:09;12.60;76.10
69626;DHT22;56847;51.984;5.088;2023-12-20T14:04:36;12.60;75.70
69626;DHT22;56847;51.984;5.088;2023-12-20T14:07:10;12.60;75.80
69626;DHT22;56847;51.984;5.088;2023-12-20T14:09:40;12.50;76.10
69626;DHT22;56847;51.984;5.088;2023-12-20T14:12:12;12.60;76.00
69626;DHT22;56847;51.984;5.088;2023-12-20T14:14:39;12.60;76.10
69626;DHT22;56847;51.984;5.088;2023-12-20T14:17:06;12.50;75.70
69626;DHT22;56847;51.984;5.088;2023-12-20T14:19:33;12.50;75.50
69626;DHT22;56847;51.984;5.088;2023-12-20T14:22:00;12.50;76.00
69626;DHT22;56847;51.984;5.088;2023-12-20T14:24:28;12.50;75.00
69626;DHT22;56847;51.984;5.088;2023-12-20T14:26:55;12.40;75.40
69626;DHT22;56847;51.984;5.088;2023-12-20T14:29:22;12.40;75.30
69626;DHT22;56847;51.984;5.088;2023-12-20T14:31:52;12.40;75.60
69626;DHT22;56847;51.984;5.088;2023-12-20T14:34:19;12.30;75.40
69626;DHT22;56847;51.984;5.088;2023-12-20T14:36:46;12.30;75.60
69626;DHT22;56847;51.984;5.088;2023-12-20T14:39:13;12.30;75.90
69626;DHT22;56847;51.984;5.088;2023-12-20T14:41:41;12.30;75.90
69626;DHT22;56847;51.984;5.088;2023-12-20T14:44:08;12.30;75.60
69626;DHT22;56847;51.984;5.088;2023-12-20T14:46:35;12.20;75.60
69626;DHT22;56847;51.984;5.088;2023-12-20T14:49:05;12.20;76.00
69626;DHT22;56847;51.984;5.088;2023-12-20T14:51:32;12.20;75.60
69626;DHT22;56847;51.984;5.088;2023-12-20T14:54:00;12.20;75.90
69626;DHT22;56847;51.984;5.088;2023-12-20T14:56:27;12.20;76.00
69626;DHT22;56847;51.984;5.088;2023-12-20T14:58:54;12.20;75.80
69626;DHT22;56847;51.984;5.088;2023-12-20T15:01:21;12.20;76.00
69626;DHT22;56847;51.984;5.088;2023-12-20T15:03:49;12.20;75.70
69626;DHT22;56847;51.984;5.088;2023-12-20T15:06:16;12.10;76.10
69626;DHT22;56847;51.984;5.088;2023-12-20T15:08:43;12.10;76.30
69626;DHT22;56847;51.984;5.088;2023-12-20T15:11:10;12.10;76.20
69626;DHT22;56847;51.984;5.088;2023-12-20T15:13:38;12.10;75.90
69626;DHT22;56847;51.984;5.088;2023-12-20T15:16:05;12.10;76.00
69626;DHT22;56847;51.984;5.088;2023-12-20T15:18:33;12.10;76.10
69626;DHT22;56847;51.984;5.088;2023-12-20T15:21:00;12.10;76.30
69626;DHT22;56847;51.984;5.088;2023-12-20T15:23:27;12.00;76.40
69626;DHT22;56847;51.984;5.088;2023-12-20T15:25:55;12.00;76.60
69626;DHT22;56847;51.984;5.088;2023-12-20T15:28:22;12.00;76.60
69626;DHT22;56847;51.984;5.088;2023-12-20T15:30:49;12.00;76.70
69626;DHT22;56847;51.984;5.088;2023-12-20T15:33:17;12.00;76.70
69626;DHT22;56847;51.984;5.088;2023-12-20T15:35:44;12.00;76.90
69626;DHT22;56847;51.984;5.088;2023-12-20T15:38:11;11.90;76.60
69626;DHT22;56847;51.984;5.088;2023-12-20T15:40:39;11.90;77.00
69626;DHT22;56847;51.984;5.088;2023-12-20T15:43:06;11.90;77.20
69626;DHT22;56847;51.984;5.088;2023-12-20T15:45:33;11.90;77.20